createdAt,value
2017-05-22T00:00:45.535Z,11.60
2017-05-22T00:03:12.479Z,11.60
2017-05-22T00:05:39.428Z,11.70
2017-05-22T00:08:06.353Z,11.70
2017-05-22T00:10:33.268Z,11.60
2017-05-22T00:13:00.240Z,11.70
2017-05-22T00:15:27.164Z,11.70
2017-05-22T00:17:54.088Z,11.60
2017-05-22T00:20:21.056Z,11.60
2017-05-22T00:22:47.977Z,11.60
2017-05-22T00:25:14.949Z,11.60
2017-05-22T00:27:41.937Z,11.60
2017-05-22T00:30:08.881Z,11.60
2017-05-22T00:32:35.821Z,11.60
2017-05-22T00:35:02.786Z,11.50
2017-05-22T00:37:29.713Z,11.50
2017-05-22T00:39:56.640Z,11.40
2017-05-22T00:42:23.595Z,11.40
2017-05-22T00:44:50.552Z,11.40
2017-05-22T00:47:17.476Z,11.40
2017-05-22T00:49:44.397Z,11.30
2017-05-22T00:52:11.376Z,11.30
2017-05-22T00:54:38.306Z,11.30
2017-05-22T00:57:05.222Z,11.30
2017-05-22T00:59:32.219Z,11.30
2017-05-22T01:01:59.152Z,11.30
2017-05-22T01:04:26.096Z,11.20
2017-05-22T01:06:53.040Z,11.30
2017-05-22T01:09:19.956Z,11.30
2017-05-22T01:11:46.910Z,11.20
2017-05-22T01:14:13.893Z,11.20
2017-05-22T01:16:40.812Z,11.20
2017-05-22T01:19:07.931Z,11.30
2017-05-22T01:21:34.852Z,11.30
2017-05-22T01:24:01.773Z,11.30
2017-05-22T01:26:28.751Z,11.40
2017-05-22T01:28:55.693Z,11.30
2017-05-22T01:31:22.697Z,11.30
2017-05-22T01:33:48.961Z,11.30
2017-05-22T01:36:16.006Z,11.10
2017-05-22T01:38:42.960Z,11.10
2017-05-22T01:41:09.944Z,11.10
2017-05-22T01:43:36.895Z,11.10
2017-05-22T01:46:03.849Z,11.10
2017-05-22T01:48:30.836Z,11.00
2017-05-22T01:50:57.776Z,10.80
2017-05-22T01:53:24.706Z,10.90
2017-05-22T01:55:51.675Z,10.80
2017-05-22T01:58:18.660Z,10.90
2017-05-22T02:00:45.579Z,10.80
2017-05-22T02:03:12.531Z,10.80
2017-05-22T02:05:39.462Z,10.70
2017-05-22T02:08:06.423Z,10.70
2017-05-22T02:10:33.366Z,10.70
2017-05-22T02:13:00.303Z,10.70
2017-05-22T02:15:27.330Z,10.60
2017-05-22T02:17:54.265Z,10.50
2017-05-22T02:20:21.209Z,10.50
2017-05-22T02:22:48.176Z,10.40
2017-05-22T02:25:15.160Z,10.40
2017-05-22T02:27:42.108Z,10.20
2017-05-22T02:30:09.098Z,10.10
2017-05-22T02:32:36.073Z,10.10
2017-05-22T02:35:03.012Z,10.10
2017-05-22T02:37:29.990Z,10.00
2017-05-22T02:39:56.916Z,9.90
2017-05-22T02:42:23.843Z,9.80
2017-05-22T02:44:50.802Z,9.70
2017-05-22T02:47:17.736Z,9.70
2017-05-22T02:49:44.677Z,9.70
2017-05-22T02:52:11.628Z,9.70
2017-05-22T02:54:38.555Z,9.70
2017-05-22T02:57:05.480Z,9.70
2017-05-22T02:59:32.469Z,9.60
2017-05-22T03:01:59.392Z,9.70
2017-05-22T03:04:26.305Z,9.60
2017-05-22T03:06:53.259Z,9.60
2017-05-22T03:09:20.197Z,9.60
2017-05-22T03:11:47.125Z,9.60
2017-05-22T03:14:14.089Z,9.50
2017-05-22T03:16:41.023Z,9.50
2017-05-22T03:19:07.941Z,9.40
2017-05-22T03:21:34.917Z,9.40
2017-05-22T03:24:01.860Z,9.40
2017-05-22T03:26:28.857Z,9.30
2017-05-22T03:28:55.828Z,9.30
2017-05-22T03:31:22.752Z,9.30
2017-05-22T03:33:49.671Z,9.20
2017-05-22T03:36:16.615Z,8.90
2017-05-22T03:38:43.576Z,8.80
2017-05-22T03:41:10.500Z,8.80
2017-05-22T03:43:37.418Z,9.00
2017-05-22T03:46:04.371Z,9.00
2017-05-22T03:48:31.322Z,9.00
2017-05-22T03:50:58.300Z,8.90
2017-05-22T03:53:25.249Z,8.90
2017-05-22T03:55:52.200Z,8.80
2017-05-22T03:58:19.140Z,8.70
2017-05-22T04:00:46.069Z,8.60
2017-05-22T04:03:13.020Z,8.70
2017-05-22T04:05:39.963Z,8.80
2017-05-22T04:08:06.932Z,8.80
2017-05-22T04:10:33.859Z,8.80
2017-05-22T04:13:00.796Z,8.70
2017-05-22T04:15:27.752Z,8.70
2017-05-22T04:17:54.681Z,8.90
2017-05-22T04:20:21.616Z,9.20
2017-05-22T04:22:48.617Z,9.40
2017-05-22T04:25:15.532Z,9.60
2017-05-22T04:27:42.453Z,9.80
2017-05-22T04:30:09.414Z,9.70
2017-05-22T04:32:36.596Z,9.70
2017-05-22T04:35:03.548Z,9.90
2017-05-22T04:37:30.477Z,10.00
2017-05-22T04:39:57.400Z,10.20
2017-05-22T04:42:24.433Z,10.10
2017-05-22T04:44:51.396Z,10.20
2017-05-22T04:47:18.312Z,10.20
2017-05-22T04:49:45.243Z,10.10
2017-05-22T04:52:12.255Z,10.00
2017-05-22T04:54:39.194Z,10.20
2017-05-22T04:57:06.156Z,10.40
2017-05-22T04:59:33.119Z,10.80
2017-05-22T05:02:00.040Z,10.90
2017-05-22T05:04:26.244Z,10.90
2017-05-22T05:06:53.219Z,11.70
2017-05-22T05:09:20.204Z,11.50
2017-05-22T05:11:47.170Z,11.80
2017-05-22T05:14:14.124Z,12.10
2017-05-22T05:16:41.145Z,12.30
2017-05-22T05:19:08.080Z,12.50
2017-05-22T05:21:34.995Z,12.60
2017-05-22T05:24:01.950Z,12.70
2017-05-22T05:26:28.880Z,12.90
2017-05-22T05:28:55.837Z,13.10
2017-05-22T05:31:22.828Z,13.20
2017-05-22T05:33:49.764Z,13.60
2017-05-22T05:36:16.723Z,13.80
2017-05-22T05:38:43.660Z,13.90
2017-05-22T05:41:10.584Z,14.30
2017-05-22T05:43:37.536Z,14.50
2017-05-22T05:46:04.521Z,14.40
2017-05-22T05:48:31.514Z,14.50
2017-05-22T05:50:58.440Z,14.70
2017-05-22T05:53:25.372Z,15.00
2017-05-22T05:55:52.337Z,15.20
2017-05-22T05:58:19.252Z,15.10
2017-05-22T06:00:46.189Z,15.30
2017-05-22T06:03:13.145Z,15.60
2017-05-22T06:05:40.076Z,15.80
2017-05-22T06:08:07.021Z,15.90
2017-05-22T06:10:33.981Z,15.90
2017-05-22T06:13:00.900Z,16.30
2017-05-22T06:15:27.821Z,16.50
2017-05-22T06:17:54.781Z,16.60
2017-05-22T06:20:21.747Z,16.70
2017-05-22T06:22:47.937Z,16.70
2017-05-22T06:25:14.919Z,16.70
2017-05-22T06:27:41.859Z,16.90
2017-05-22T06:30:08.832Z,17.40
2017-05-22T06:32:35.764Z,17.50
2017-05-22T06:35:02.700Z,17.70
2017-05-22T06:37:29.660Z,17.80
2017-05-22T06:39:56.672Z,17.90
2017-05-22T06:42:23.597Z,18.10
2017-05-22T06:44:50.531Z,18.40
2017-05-22T06:47:17.476Z,18.60
2017-05-22T06:49:44.423Z,18.90
2017-05-22T06:52:11.474Z,19.20
2017-05-22T06:54:38.413Z,19.10
2017-05-22T06:57:05.385Z,19.30
2017-05-22T06:59:32.328Z,19.80
2017-05-22T07:01:59.260Z,20.20
2017-05-22T07:04:26.244Z,20.40
2017-05-22T07:06:52.447Z,20.30
2017-05-22T07:09:19.400Z,20.90
2017-05-22T07:11:46.343Z,20.90
2017-05-22T07:14:13.338Z,21.20
2017-05-22T07:16:40.284Z,21.20
2017-05-22T07:19:07.236Z,21.60
2017-05-22T07:21:34.205Z,21.60
2017-05-22T07:24:01.165Z,22.00
2017-05-22T07:26:28.099Z,22.60
2017-05-22T07:28:55.164Z,22.70
2017-05-22T07:31:21.396Z,22.70
2017-05-22T07:33:48.353Z,22.90
2017-05-22T07:36:15.306Z,22.90
2017-05-22T07:38:42.228Z,23.10
2017-05-22T07:41:09.165Z,23.50
2017-05-22T07:43:36.118Z,23.80
2017-05-22T07:46:03.051Z,24.30
2017-05-22T07:48:30.023Z,24.30
2017-05-22T07:50:56.985Z,24.40
2017-05-22T07:53:23.944Z,23.80
2017-05-22T07:55:50.931Z,24.60
2017-05-22T07:58:17.901Z,25.30
2017-05-22T08:00:44.832Z,25.70
2017-05-22T08:03:11.819Z,26.00
2017-05-22T08:05:38.741Z,26.50
2017-05-22T08:08:05.667Z,27.10
2017-05-22T08:10:32.720Z,27.40
2017-05-22T08:12:59.681Z,27.30
2017-05-22T08:15:26.640Z,27.50
2017-05-22T08:17:53.605Z,27.40
2017-05-22T08:20:20.585Z,27.80
2017-05-22T08:22:47.520Z,28.10
2017-05-22T08:25:14.532Z,27.70
2017-05-22T08:27:41.628Z,28.40
2017-05-22T08:30:08.573Z,28.50
2017-05-22T08:32:35.513Z,28.60
2017-05-22T08:35:02.513Z,29.10
2017-05-22T08:37:29.461Z,29.10
2017-05-22T08:39:56.424Z,29.20
2017-05-22T08:42:23.441Z,29.10
2017-05-22T08:44:50.444Z,28.10
2017-05-22T08:47:17.432Z,29.00
2017-05-22T08:49:44.389Z,29.70
2017-05-22T08:52:11.321Z,30.10
2017-05-22T08:54:38.294Z,30.50
2017-05-22T08:57:05.211Z,29.90
2017-05-22T08:59:32.160Z,30.30
2017-05-22T09:01:59.111Z,30.90
2017-05-22T09:04:26.032Z,31.10
2017-05-22T09:06:53.009Z,30.90
2017-05-22T09:09:19.940Z,30.40
2017-05-22T09:11:46.880Z,31.00
2017-05-22T09:14:14.029Z,31.30
2017-05-22T09:16:40.964Z,30.70
2017-05-22T09:19:07.942Z,31.30
2017-05-22T09:21:34.915Z,31.90
2017-05-22T09:24:01.896Z,32.30
2017-05-22T09:26:28.836Z,31.90
2017-05-22T09:28:55.803Z,31.10
2017-05-22T09:31:22.732Z,30.50
2017-05-22T09:33:49.741Z,30.00
2017-05-22T09:36:16.699Z,30.00
2017-05-22T09:38:43.621Z,29.40
2017-05-22T09:41:10.614Z,29.80
2017-05-22T09:43:37.597Z,30.50
2017-05-22T09:46:04.539Z,30.10
2017-05-22T09:48:31.529Z,29.90
2017-05-22T09:50:58.504Z,29.80
2017-05-22T09:53:25.447Z,31.00
2017-05-22T09:55:52.422Z,31.70
2017-05-22T09:58:19.392Z,32.10
2017-05-22T10:00:46.315Z,31.90
2017-05-22T10:03:13.336Z,32.20
2017-05-22T10:05:40.285Z,31.40
2017-05-22T10:08:07.234Z,31.60
2017-05-22T10:10:34.192Z,32.20
2017-05-22T10:13:01.119Z,32.00
2017-05-22T10:15:28.048Z,31.90
2017-05-22T10:17:55.048Z,31.20
2017-05-22T10:20:22.021Z,30.10
2017-05-22T10:22:48.958Z,29.20
2017-05-22T10:25:15.914Z,29.80
2017-05-22T10:27:42.856Z,30.60
2017-05-22T10:30:09.781Z,30.50
2017-05-22T10:32:36.748Z,29.80
2017-05-22T10:35:03.690Z,28.60
2017-05-22T10:37:30.609Z,29.50
2017-05-22T10:39:57.761Z,28.40
2017-05-22T10:42:24.689Z,28.90
2017-05-22T10:44:51.616Z,29.60
2017-05-22T10:47:18.588Z,30.40
2017-05-22T10:49:45.516Z,31.20
2017-05-22T10:52:12.500Z,31.80
2017-05-22T10:54:39.459Z,32.20
2017-05-22T10:57:06.448Z,32.10
2017-05-22T10:59:33.410Z,32.20
2017-05-22T11:02:00.413Z,31.90
2017-05-22T11:04:27.364Z,31.50
2017-05-22T11:06:54.320Z,31.20
2017-05-22T11:09:21.301Z,30.80
2017-05-22T11:11:48.216Z,30.70
2017-05-22T11:14:15.205Z,30.30
2017-05-22T11:16:42.321Z,30.10
2017-05-22T11:19:09.257Z,29.70
2017-05-22T11:21:36.192Z,29.40
2017-05-22T11:24:03.126Z,29.10
2017-05-22T11:26:30.068Z,28.90
2017-05-22T11:28:57.085Z,28.70
2017-05-22T11:31:24.017Z,28.30
2017-05-22T11:33:50.197Z,28.20
2017-05-22T11:36:17.163Z,27.40
2017-05-22T11:38:44.110Z,26.80
2017-05-22T11:41:11.069Z,26.50
2017-05-22T11:43:37.988Z,26.10
2017-05-22T11:46:04.965Z,26.10
2017-05-22T11:48:31.920Z,26.40
2017-05-22T11:50:58.899Z,26.30
2017-05-22T11:53:25.821Z,26.40
2017-05-22T11:55:52.841Z,26.10
2017-05-22T11:58:19.836Z,25.80
2017-05-22T12:00:46.767Z,25.70
2017-05-22T12:03:13.696Z,24.70
2017-05-22T12:05:40.648Z,24.10
2017-05-22T12:08:07.589Z,24.10
2017-05-22T12:10:34.552Z,24.20
2017-05-22T12:13:01.484Z,24.50
2017-05-22T12:15:28.432Z,24.30
2017-05-22T12:17:55.352Z,23.60
2017-05-22T12:20:22.339Z,23.80
2017-05-22T12:22:49.256Z,24.10
2017-05-22T12:25:16.217Z,24.40
2017-05-22T12:27:43.214Z,24.40
2017-05-22T12:30:10.175Z,24.60
2017-05-22T12:32:37.097Z,24.70
2017-05-22T12:35:04.028Z,24.70
2017-05-22T12:37:31.312Z,24.60
2017-05-22T12:39:58.235Z,24.60
2017-05-22T12:42:24.420Z,24.60
2017-05-22T12:44:51.382Z,24.10
2017-05-22T12:47:18.297Z,23.90
2017-05-22T12:49:45.269Z,23.50
2017-05-22T12:52:11.455Z,23.50
2017-05-22T12:54:38.376Z,23.90
2017-05-22T12:57:05.326Z,24.00
2017-05-22T12:59:32.312Z,23.90
2017-05-22T13:01:59.246Z,24.00
2017-05-22T13:04:25.496Z,23.90
2017-05-22T13:06:52.424Z,23.80
2017-05-22T13:09:19.337Z,23.80
2017-05-22T13:11:46.291Z,23.90
2017-05-22T13:14:13.206Z,24.00
2017-05-22T13:16:40.157Z,24.10
2017-05-22T13:19:07.113Z,23.80
2017-05-22T13:21:34.043Z,23.60
2017-05-22T13:24:01.006Z,23.20
2017-05-22T13:26:27.937Z,22.40
2017-05-22T13:28:54.880Z,21.70
2017-05-22T13:31:21.826Z,21.50
2017-05-22T13:33:48.755Z,21.00
2017-05-22T13:36:15.745Z,21.20
2017-05-22T13:38:42.661Z,21.30
2017-05-22T13:41:09.585Z,21.50
2017-05-22T13:43:36.530Z,21.80
2017-05-22T13:46:03.464Z,22.00
2017-05-22T13:48:30.437Z,21.90
2017-05-22T13:50:57.356Z,22.10
2017-05-22T13:53:24.276Z,22.10
2017-05-22T13:55:51.243Z,22.00
2017-05-22T13:58:18.205Z,21.60
2017-05-22T14:00:45.162Z,21.80
2017-05-22T14:03:12.124Z,21.90
2017-05-22T14:05:39.039Z,22.00
2017-05-22T14:08:05.974Z,22.10
2017-05-22T14:10:32.967Z,21.80
2017-05-22T14:12:59.901Z,21.70
2017-05-22T14:15:26.831Z,22.00
2017-05-22T14:17:53.797Z,22.40
2017-05-22T14:20:20.732Z,22.60
2017-05-22T14:22:47.665Z,22.80
2017-05-22T14:25:14.653Z,22.90
2017-05-22T14:27:41.600Z,23.00
2017-05-22T14:30:08.568Z,22.90
2017-05-22T14:32:35.525Z,22.90
2017-05-22T14:35:02.457Z,22.80
2017-05-22T14:37:29.417Z,22.70
2017-05-22T14:39:56.364Z,22.70
2017-05-22T14:42:23.377Z,22.50
2017-05-22T14:44:50.339Z,22.50
2017-05-22T14:47:17.319Z,22.60
2017-05-22T14:49:44.279Z,22.60
2017-05-22T14:52:11.240Z,22.60
2017-05-22T14:54:38.183Z,22.70
2017-05-22T14:57:05.132Z,22.60
2017-05-22T14:59:32.178Z,22.70
2017-05-22T15:01:59.102Z,22.70
2017-05-22T15:04:26.033Z,22.80
2017-05-22T15:06:53.018Z,22.80
2017-05-22T15:09:19.948Z,22.80
2017-05-22T15:11:46.975Z,22.80
2017-05-22T15:14:13.903Z,22.70
2017-05-22T15:16:40.851Z,22.70
2017-05-22T15:19:07.821Z,22.70
2017-05-22T15:21:34.744Z,22.80
2017-05-22T15:24:01.688Z,23.00
2017-05-22T15:26:28.656Z,23.10
2017-05-22T15:28:55.654Z,23.10
2017-05-22T15:31:22.576Z,23.00
2017-05-22T15:33:49.531Z,23.00
2017-05-22T15:36:16.512Z,23.00
2017-05-22T15:38:43.440Z,23.00
2017-05-22T15:41:10.409Z,23.00
2017-05-22T15:43:37.333Z,23.00
2017-05-22T15:46:04.252Z,23.00
2017-05-22T15:48:31.222Z,23.00
2017-05-22T15:50:58.166Z,22.70
2017-05-22T15:53:25.084Z,22.60
2017-05-22T15:55:52.024Z,22.50
2017-05-22T15:58:18.953Z,22.50
2017-05-22T16:00:45.942Z,22.50
2017-05-22T16:03:12.933Z,22.50
2017-05-22T16:05:39.850Z,22.50
2017-05-22T16:08:06.792Z,22.50
2017-05-22T16:10:33.699Z,22.60
2017-05-22T16:13:00.701Z,22.50
2017-05-22T16:15:27.634Z,22.50
2017-05-22T16:17:54.555Z,22.40
2017-05-22T16:20:21.529Z,22.40
2017-05-22T16:22:48.597Z,22.40
2017-05-22T16:25:15.513Z,22.40
2017-05-22T16:27:42.736Z,22.30
2017-05-22T16:30:09.657Z,22.30
2017-05-22T16:32:36.646Z,22.20
2017-05-22T16:35:03.643Z,22.30
2017-05-22T16:37:30.581Z,22.30
2017-05-22T16:39:57.505Z,22.20
2017-05-22T16:42:24.913Z,22.20
2017-05-22T16:44:51.866Z,22.20
2017-05-22T16:47:18.814Z,22.10
2017-05-22T16:49:45.992Z,22.10
2017-05-22T16:52:12.936Z,22.10
2017-05-22T16:54:39.918Z,22.10
2017-05-22T16:57:06.905Z,21.90
2017-05-22T16:59:33.828Z,21.80
2017-05-22T17:02:00.755Z,21.70
2017-05-22T17:04:27.701Z,21.70
2017-05-22T17:06:54.633Z,21.70
2017-05-22T17:09:21.622Z,21.70
2017-05-22T17:11:48.557Z,21.70
2017-05-22T17:14:15.473Z,21.60
2017-05-22T17:16:42.440Z,21.50
2017-05-22T17:19:09.389Z,21.50
2017-05-22T17:21:36.311Z,21.60
2017-05-22T17:24:03.289Z,21.40
2017-05-22T17:26:30.287Z,21.30
2017-05-22T17:28:57.230Z,21.30
2017-05-22T17:31:24.233Z,21.30
2017-05-22T17:33:51.172Z,21.30
2017-05-22T17:36:18.118Z,21.30
2017-05-22T17:38:45.077Z,21.20
2017-05-22T17:41:12.052Z,21.10
2017-05-22T17:43:38.972Z,21.20
2017-05-22T17:46:05.200Z,21.10
2017-05-22T17:48:32.119Z,20.80
2017-05-22T17:50:59.068Z,20.70
2017-05-22T17:53:26.023Z,20.70
2017-05-22T17:55:52.977Z,20.70
2017-05-22T17:58:19.952Z,20.70
2017-05-22T18:00:46.876Z,20.60
2017-05-22T18:03:13.823Z,20.60
2017-05-22T18:05:40.793Z,20.60
2017-05-22T18:08:07.762Z,20.60
2017-05-22T18:10:34.721Z,20.50
2017-05-22T18:13:01.692Z,20.40
2017-05-22T18:15:28.646Z,20.30
2017-05-22T18:17:55.582Z,20.30
2017-05-22T18:20:22.633Z,20.20
2017-05-22T18:22:49.585Z,20.10
2017-05-22T18:25:16.566Z,20.00
2017-05-22T18:27:43.563Z,20.00
2017-05-22T18:30:10.500Z,20.00
2017-05-22T18:32:37.525Z,19.90
2017-05-22T18:35:04.493Z,19.80
2017-05-22T18:37:31.416Z,19.70
2017-05-22T18:39:58.348Z,19.70
2017-05-22T18:42:25.378Z,19.50
2017-05-22T18:44:52.318Z,19.30
2017-05-22T18:47:19.245Z,19.30
2017-05-22T18:49:46.273Z,19.30
2017-05-22T18:52:13.213Z,19.20
2017-05-22T18:54:40.176Z,19.20
2017-05-22T18:57:07.124Z,19.10
2017-05-22T18:59:34.058Z,19.20
2017-05-22T19:02:01.032Z,19.20
2017-05-22T19:04:27.970Z,19.20
2017-05-22T19:06:54.907Z,19.20
2017-05-22T19:09:21.864Z,19.10
2017-05-22T19:11:48.788Z,19.00
2017-05-22T19:14:15.795Z,18.90
2017-05-22T19:16:42.786Z,18.70
2017-05-22T19:19:09.714Z,18.60
2017-05-22T19:21:36.638Z,18.60
2017-05-22T19:24:03.628Z,18.60
2017-05-22T19:26:30.553Z,18.40
2017-05-22T19:28:57.523Z,18.40
2017-05-22T19:31:24.548Z,18.30
2017-05-22T19:33:51.513Z,18.20
2017-05-22T19:36:18.448Z,18.10
2017-05-22T19:38:45.387Z,18.00
2017-05-22T19:41:12.361Z,18.00
2017-05-22T19:43:39.294Z,18.00
2017-05-22T19:46:06.827Z,17.90
2017-05-22T19:48:34.009Z,17.80
2017-05-22T19:51:00.941Z,17.80
2017-05-22T19:53:27.901Z,17.80
2017-05-22T19:55:54.825Z,17.70
2017-05-22T19:58:21.749Z,17.60
2017-05-22T20:00:48.722Z,17.50
2017-05-22T20:03:15.741Z,17.50
2017-05-22T20:05:42.669Z,17.40
2017-05-22T20:08:09.596Z,17.30
2017-05-22T20:10:36.597Z,17.20
2017-05-22T20:13:03.541Z,17.40
2017-05-22T20:15:30.497Z,17.30
2017-05-22T20:17:57.481Z,17.10
2017-05-22T20:20:24.411Z,16.90
2017-05-22T20:22:51.328Z,16.40
2017-05-22T20:25:18.296Z,16.30
2017-05-22T20:27:45.234Z,16.00
2017-05-22T20:30:12.181Z,16.00
2017-05-22T20:32:39.159Z,16.00
2017-05-22T20:35:06.084Z,16.00
2017-05-22T20:37:33.039Z,15.90
2017-05-22T20:39:59.986Z,15.70
2017-05-22T20:42:26.952Z,15.70
2017-05-22T20:44:53.910Z,15.40
2017-05-22T20:47:20.863Z,15.40
2017-05-22T20:49:47.829Z,15.20
2017-05-22T20:52:14.822Z,15.00
2017-05-22T20:54:41.748Z,14.90
2017-05-22T20:57:08.695Z,15.00
2017-05-22T20:59:35.643Z,14.90
2017-05-22T21:02:02.560Z,14.80
2017-05-22T21:04:29.473Z,14.70
2017-05-22T21:06:56.437Z,14.40
2017-05-22T21:09:23.365Z,14.20
2017-05-22T21:11:50.296Z,14.40
2017-05-22T21:14:17.253Z,14.40
2017-05-22T21:16:44.173Z,14.00
2017-05-22T21:19:11.093Z,13.90
2017-05-22T21:21:38.041Z,14.00
2017-05-22T21:24:04.968Z,14.10
2017-05-22T21:26:31.874Z,14.20
2017-05-22T21:28:58.824Z,14.20
2017-05-22T21:31:25.731Z,14.00
2017-05-22T21:33:52.696Z,13.90
2017-05-22T21:36:19.641Z,14.00
2017-05-22T21:38:46.572Z,14.00
2017-05-22T21:41:13.571Z,14.10
2017-05-22T21:43:40.504Z,14.10
2017-05-22T21:46:07.458Z,14.10
2017-05-22T21:48:34.417Z,14.10
2017-05-22T21:51:01.340Z,14.20
2017-05-22T21:53:28.257Z,14.10
2017-05-22T21:55:55.207Z,14.00
2017-05-22T21:58:22.125Z,14.00
2017-05-22T22:00:49.043Z,13.90
2017-05-22T22:03:15.979Z,13.80
2017-05-22T22:05:42.914Z,13.80
2017-05-22T22:08:09.864Z,13.70
2017-05-22T22:10:36.805Z,13.50
2017-05-22T22:13:03.736Z,13.60
2017-05-22T22:15:30.685Z,13.70
2017-05-22T22:17:57.614Z,13.80
2017-05-22T22:20:24.532Z,13.80
2017-05-22T22:22:51.508Z,13.80
2017-05-22T22:25:18.424Z,13.60
2017-05-22T22:27:45.390Z,13.60
2017-05-22T22:30:12.344Z,13.60
2017-05-22T22:32:39.328Z,13.50
2017-05-22T22:35:06.245Z,13.50
2017-05-22T22:37:33.185Z,13.60
2017-05-22T22:40:00.099Z,13.60
2017-05-22T22:42:27.940Z,13.60
2017-05-22T22:44:54.861Z,13.60
2017-05-22T22:47:21.773Z,13.60
2017-05-22T22:49:48.735Z,13.60
2017-05-22T22:52:15.662Z,13.40
2017-05-22T22:54:42.568Z,13.30
2017-05-22T22:57:09.564Z,13.10
2017-05-22T22:59:36.492Z,12.80
2017-05-22T23:02:03.411Z,12.40
2017-05-22T23:04:30.348Z,12.30
2017-05-22T23:06:57.271Z,12.40
2017-05-22T23:09:24.232Z,12.20
2017-05-22T23:11:51.141Z,12.00
2017-05-22T23:14:18.058Z,12.20
2017-05-22T23:16:45.020Z,12.20
2017-05-22T23:19:11.936Z,12.20
2017-05-22T23:21:38.846Z,12.00
2017-05-22T23:24:05.793Z,11.80
2017-05-22T23:26:32.717Z,11.90
2017-05-22T23:28:59.643Z,12.00
2017-05-22T23:31:26.579Z,12.10
2017-05-22T23:33:52.787Z,12.10
2017-05-22T23:36:19.709Z,12.00
2017-05-22T23:38:46.651Z,12.00
2017-05-22T23:41:13.564Z,12.00
2017-05-22T23:43:40.489Z,12.10
2017-05-22T23:46:07.424Z,12.20
2017-05-22T23:48:34.333Z,12.30
2017-05-22T23:51:01.285Z,12.40
2017-05-22T23:53:28.264Z,12.50
2017-05-22T23:55:55.250Z,12.50
2017-05-22T23:58:22.177Z,12.50
